miércoles, 4 de febrero de 2015

[ACCIDENTE] ATR 72-212A Matrícula B-22816 | Taiwán

Un vuelo TransAsia Airways , con una aeronave ATR-72-212A, matrícula B-22816 vuelo GE-235 deMayday Mayday fallo de motor" posteriormente no se tuvo transmisión de otro tipo.
Taipei Songshan a Kinmen (Taiwán) con 53 pasajeros y 5 tripulantes, despegó de la pista 10 del aeropuerto Songshan. Poco después del despegue a las 02:52Z el avión comenzó a girar a la izquierda, la tripulación emitió por la frecuencia  "
La aeronave alcanzó una altura máxima de 1.050 pies (corregido por QNH), perdió altura, golpeó un taxi, luego golpeó con el viaducto del boulevar Huangdong con su ala izquierda, con cerca de 90 grados de ángulo de inclinación lateral e impactó el agua del río Keelung,  a 2,9 millas de la pista 10

14 personas fueron rescatadas con vida, 16 ocupantes murieron, 28 personas son desaparecido y se teme que estén atrapados dentro de los restos casi sumergido en el río.

Foto: The Telegraph

Suscriptores que no puedan ver el video: http://www.liveleak.com/view?i=e36_1423052703



Suscriptores que no puedan ver el video: https://www.youtube.com/watch?v=D2aqeRwN2Wg






Foto: The Mirror
Foto: The Mirror

Foto: The Telegraph


Rescate de sobrevivientes

Suscriptores por correo electrónico que no reciban el video: https://www.youtube.com/watch?v=4r3EKqdXjsk





Foto: The telegraph
Foto: CTS News

METAR



RCSS 040300Z 10010KT 9999 FEW015 BKN028 BKN040 16/13 Q1024 NOSIG RMK A3025 
RCSS 040230Z 10008KT 9999 FEW013 BKN028 BKN040 16/13 Q1024 NOSIG RMK A3025 



Estadísticas de accidentes del ATR


Accidentes con pérdida del casco: 19 con un total de 308 víctimas mortales
La tasa de supervivencia: 33,2% de todos los ocupantes que sobrevivieron en accidentes mortales

El aeropuerto






No hay comentarios.:

Publicar un comentario